sensor_id;sensor_type;location;lat;lon;timestamp;temperature;humidity
10129;DHT22;5104;50.720;7.044;2023-05-29T00:00:26;15.70;93.20
10129;DHT22;5104;50.720;7.044;2023-05-29T00:02:53;15.70;99.90
10129;DHT22;5104;50.720;7.044;2023-05-29T00:05:20;15.70;99.90
10129;DHT22;5104;50.720;7.044;2023-05-29T00:07:46;15.60;99.90
10129;DHT22;5104;50.720;7.044;2023-05-29T00:10:16;15.60;99.90
10129;DHT22;5104;50.720;7.044;2023-05-29T00:12:43;15.50;99.90
10129;DHT22;5104;50.720;7.044;2023-05-29T00:15:10;15.50;99.90
10129;DHT22;5104;50.720;7.044;2023-05-29T00:17:38;15.50;99.90
10129;DHT22;5104;50.720;7.044;2023-05-29T00:20:06;15.50;99.90
10129;DHT22;5104;50.720;7.044;2023-05-29T00:22:34;15.40;99.90
10129;DHT22;5104;50.720;7.044;2023-05-29T00:25:03;15.40;99.90
10129;DHT22;5104;50.720;7.044;2023-05-29T00:27:32;15.30;1.00
10129;DHT22;5104;50.720;7.044;2023-05-29T00:29:59;15.30;1.00
10129;DHT22;5104;50.720;7.044;2023-05-29T00:32:26;15.30;1.00
10129;DHT22;5104;50.720;7.044;2023-05-29T00:34:53;15.20;1.00
10129;DHT22;5104;50.720;7.044;2023-05-29T00:37:20;15.20;1.00
10129;DHT22;5104;50.720;7.044;2023-05-29T00:39:48;15.20;1.00
10129;DHT22;5104;50.720;7.044;2023-05-29T00:42:15;15.10;1.00
10129;DHT22;5104;50.720;7.044;2023-05-29T00:44:43;15.10;1.00
10129;DHT22;5104;50.720;7.044;2023-05-29T00:47:10;15.10;1.00
10129;DHT22;5104;50.720;7.044;2023-05-29T00:49:37;15.00;1.00
10129;DHT22;5104;50.720;7.044;2023-05-29T00:52:05;15.00;1.00
10129;DHT22;5104;50.720;7.044;2023-05-29T00:54:34;14.90;1.00
10129;DHT22;5104;50.720;7.044;2023-05-29T00:57:02;14.90;1.00
10129;DHT22;5104;50.720;7.044;2023-05-29T00:59:31;14.80;1.00
10129;DHT22;5104;50.720;7.044;2023-05-29T01:02:01;14.70;1.00
10129;DHT22;5104;50.720;7.044;2023-05-29T01:04:28;14.70;1.00
10129;DHT22;5104;50.720;7.044;2023-05-29T01:06:59;14.70;17.50
10129;DHT22;5104;50.720;7.044;2023-05-29T01:09:28;14.60;16.40
10129;DHT22;5104;50.720;7.044;2023-05-29T01:12:13;14.60;98.20
10129;DHT22;5104;50.720;7.044;2023-05-29T01:15:04;14.50;99.90
10129;DHT22;5104;50.720;7.044;2023-05-29T01:17:51;14.50;99.90
10129;DHT22;5104;50.720;7.044;2023-05-29T01:20:29;14.50;99.90
10129;DHT22;5104;50.720;7.044;2023-05-29T01:23:10;14.40;99.90
10129;DHT22;5104;50.720;7.044;2023-05-29T01:25:55;14.40;99.90
10129;DHT22;5104;50.720;7.044;2023-05-29T01:28:31;14.30;1.00
10129;DHT22;5104;50.720;7.044;2023-05-29T01:31:00;14.30;1.00
10129;DHT22;5104;50.720;7.044;2023-05-29T01:33:29;14.30;1.00
10129;DHT22;5104;50.720;7.044;2023-05-29T01:35:56;14.30;1.00
10129;DHT22;5104;50.720;7.044;2023-05-29T01:38:23;14.30;1.00
10129;DHT22;5104;50.720;7.044;2023-05-29T01:40:50;14.20;1.00
10129;DHT22;5104;50.720;7.044;2023-05-29T01:43:18;14.20;1.00
10129;DHT22;5104;50.720;7.044;2023-05-29T01:45:46;14.20;1.00
10129;DHT22;5104;50.720;7.044;2023-05-29T01:48:13;14.20;1.00
10129;DHT22;5104;50.720;7.044;2023-05-29T01:50:42;14.20;1.00
10129;DHT22;5104;50.720;7.044;2023-05-29T01:53:09;14.10;1.00
10129;DHT22;5104;50.720;7.044;2023-05-29T01:55:36;14.10;1.00
10129;DHT22;5104;50.720;7.044;2023-05-29T01:58:04;14.00;1.00
10129;DHT22;5104;50.720;7.044;2023-05-29T02:00:31;14.00;1.00
10129;DHT22;5104;50.720;7.044;2023-05-29T02:03:00;14.00;1.00
10129;DHT22;5104;50.720;7.044;2023-05-29T02:05:27;14.00;1.00
10129;DHT22;5104;50.720;7.044;2023-05-29T02:07:54;14.00;1.00
10129;DHT22;5104;50.720;7.044;2023-05-29T02:10:21;14.00;1.00
10129;DHT22;5104;50.720;7.044;2023-05-29T02:12:48;14.00;1.00
10129;DHT22;5104;50.720;7.044;2023-05-29T02:15:15;13.90;1.00
10129;DHT22;5104;50.720;7.044;2023-05-29T02:17:42;13.90;1.00
10129;DHT22;5104;50.720;7.044;2023-05-29T02:20:11;13.80;1.00
10129;DHT22;5104;50.720;7.044;2023-05-29T02:22:38;13.80;1.00
10129;DHT22;5104;50.720;7.044;2023-05-29T02:25:06;13.80;1.00
10129;DHT22;5104;50.720;7.044;2023-05-29T02:27:33;13.80;27.50
10129;DHT22;5104;50.720;7.044;2023-05-29T02:30:00;13.70;64.50
10129;DHT22;5104;50.720;7.044;2023-05-29T02:32:27;13.70;79.20
10129;DHT22;5104;50.720;7.044;2023-05-29T02:34:55;13.70;53.00
10129;DHT22;5104;50.720;7.044;2023-05-29T02:37:23;13.60;92.90
10129;DHT22;5104;50.720;7.044;2023-05-29T02:39:51;13.60;99.90
10129;DHT22;5104;50.720;7.044;2023-05-29T02:42:18;13.50;99.90
10129;DHT22;5104;50.720;7.044;2023-05-29T02:44:45;13.50;99.90
10129;DHT22;5104;50.720;7.044;2023-05-29T02:47:12;13.50;99.90
10129;DHT22;5104;50.720;7.044;2023-05-29T02:49:39;13.40;99.90
10129;DHT22;5104;50.720;7.044;2023-05-29T02:52:06;13.40;99.90
10129;DHT22;5104;50.720;7.044;2023-05-29T02:54:34;13.30;99.90
10129;DHT22;5104;50.720;7.044;2023-05-29T02:57:01;13.30;99.90
10129;DHT22;5104;50.720;7.044;2023-05-29T02:59:30;13.30;99.90
10129;DHT22;5104;50.720;7.044;2023-05-29T03:01:57;13.20;1.00
10129;DHT22;5104;50.720;7.044;2023-05-29T03:04:24;13.20;99.90
10129;DHT22;5104;50.720;7.044;2023-05-29T03:06:51;13.20;99.90
10129;DHT22;5104;50.720;7.044;2023-05-29T03:09:19;13.10;99.90
10129;DHT22;5104;50.720;7.044;2023-05-29T03:11:48;13.10;99.90
10129;DHT22;5104;50.720;7.044;2023-05-29T03:14:16;13.10;99.90
10129;DHT22;5104;50.720;7.044;2023-05-29T03:16:44;13.00;99.90
10129;DHT22;5104;50.720;7.044;2023-05-29T03:19:11;13.00;99.90
10129;DHT22;5104;50.720;7.044;2023-05-29T03:21:38;13.00;1.00
10129;DHT22;5104;50.720;7.044;2023-05-29T03:24:05;13.00;1.00
10129;DHT22;5104;50.720;7.044;2023-05-29T03:26:32;13.00;1.00
10129;DHT22;5104;50.720;7.044;2023-05-29T03:29:01;13.00;1.00
10129;DHT22;5104;50.720;7.044;2023-05-29T03:31:27;13.00;1.00
10129;DHT22;5104;50.720;7.044;2023-05-29T03:33:55;13.00;1.00
10129;DHT22;5104;50.720;7.044;2023-05-29T03:36:22;13.00;1.00
10129;DHT22;5104;50.720;7.044;2023-05-29T03:38:49;13.00;1.00
10129;DHT22;5104;50.720;7.044;2023-05-29T03:41:16;13.00;1.00
10129;DHT22;5104;50.720;7.044;2023-05-29T03:43:42;13.00;1.00
10129;DHT22;5104;50.720;7.044;2023-05-29T03:46:11;13.00;1.00
10129;DHT22;5104;50.720;7.044;2023-05-29T03:48:37;13.00;1.00
10129;DHT22;5104;50.720;7.044;2023-05-29T03:51:05;13.00;1.00
10129;DHT22;5104;50.720;7.044;2023-05-29T03:53:32;13.00;1.00
10129;DHT22;5104;50.720;7.044;2023-05-29T03:55:59;12.90;1.00
10129;DHT22;5104;50.720;7.044;2023-05-29T03:58:26;12.90;1.00
10129;DHT22;5104;50.720;7.044;2023-05-29T04:00:53;12.90;1.00
10129;DHT22;5104;50.720;7.044;2023-05-29T04:03:21;12.80;1.00
10129;DHT22;5104;50.720;7.044;2023-05-29T04:05:48;12.90;1.00
10129;DHT22;5104;50.720;7.044;2023-05-29T04:08:15;12.90;1.00
10129;DHT22;5104;50.720;7.044;2023-05-29T04:10:42;12.90;1.00
10129;DHT22;5104;50.720;7.044;2023-05-29T04:13:09;12.90;1.00
10129;DHT22;5104;50.720;7.044;2023-05-29T04:15:36;12.90;1.00
10129;DHT22;5104;50.720;7.044;2023-05-29T04:18:03;12.90;1.00
10129;DHT22;5104;50.720;7.044;2023-05-29T04:20:31;13.00;1.00
10129;DHT22;5104;50.720;7.044;2023-05-29T04:22:58;13.00;1.00
10129;DHT22;5104;50.720;7.044;2023-05-29T04:25:25;13.00;1.00
10129;DHT22;5104;50.720;7.044;2023-05-29T04:27:52;13.10;1.00
10129;DHT22;5104;50.720;7.044;2023-05-29T04:30:19;13.10;1.00
10129;DHT22;5104;50.720;7.044;2023-05-29T04:32:46;13.10;1.00
10129;DHT22;5104;50.720;7.044;2023-05-29T04:35:13;13.20;1.00
10129;DHT22;5104;50.720;7.044;2023-05-29T04:37:42;13.10;99.90
10129;DHT22;5104;50.720;7.044;2023-05-29T04:40:09;13.20;99.90
10129;DHT22;5104;50.720;7.044;2023-05-29T04:42:37;13.20;99.90
10129;DHT22;5104;50.720;7.044;2023-05-29T04:45:06;13.20;99.90
10129;DHT22;5104;50.720;7.044;2023-05-29T04:47:35;13.20;99.90
10129;DHT22;5104;50.720;7.044;2023-05-29T04:50:10;13.20;99.90
10129;DHT22;5104;50.720;7.044;2023-05-29T04:52:37;13.30;99.90
10129;DHT22;5104;50.720;7.044;2023-05-29T04:55:05;13.30;99.90
10129;DHT22;5104;50.720;7.044;2023-05-29T04:57:32;13.30;99.90
10129;DHT22;5104;50.720;7.044;2023-05-29T04:59:59;13.40;99.90
10129;DHT22;5104;50.720;7.044;2023-05-29T05:02:26;13.40;94.20
10129;DHT22;5104;50.720;7.044;2023-05-29T05:04:53;13.40;99.90
10129;DHT22;5104;50.720;7.044;2023-05-29T05:07:20;13.40;95.30
10129;DHT22;5104;50.720;7.044;2023-05-29T05:09:47;13.40;99.90
10129;DHT22;5104;50.720;7.044;2023-05-29T05:12:15;13.50;99.90
10129;DHT22;5104;50.720;7.044;2023-05-29T05:14:42;13.50;22.30
10129;DHT22;5104;50.720;7.044;2023-05-29T05:17:09;13.60;47.40
10129;DHT22;5104;50.720;7.044;2023-05-29T05:19:37;13.70;1.00
10129;DHT22;5104;50.720;7.044;2023-05-29T05:22:04;13.80;1.00
10129;DHT22;5104;50.720;7.044;2023-05-29T05:24:31;13.80;1.00
10129;DHT22;5104;50.720;7.044;2023-05-29T05:27:00;13.90;1.00
10129;DHT22;5104;50.720;7.044;2023-05-29T05:29:28;13.90;1.00
10129;DHT22;5104;50.720;7.044;2023-05-29T05:31:55;13.90;1.00
10129;DHT22;5104;50.720;7.044;2023-05-29T05:34:22;13.90;1.00
10129;DHT22;5104;50.720;7.044;2023-05-29T05:36:49;14.00;1.00
10129;DHT22;5104;50.720;7.044;2023-05-29T05:39:16;14.10;1.00
10129;DHT22;5104;50.720;7.044;2023-05-29T05:41:43;14.00;1.00
10129;DHT22;5104;50.720;7.044;2023-05-29T05:44:10;14.00;1.00
10129;DHT22;5104;50.720;7.044;2023-05-29T05:46:38;13.90;1.00
10129;DHT22;5104;50.720;7.044;2023-05-29T05:49:05;14.00;1.00
10129;DHT22;5104;50.720;7.044;2023-05-29T05:51:32;14.10;1.00
10129;DHT22;5104;50.720;7.044;2023-05-29T05:53:58;14.10;1.00
10129;DHT22;5104;50.720;7.044;2023-05-29T05:56:25;14.20;1.00
10129;DHT22;5104;50.720;7.044;2023-05-29T05:58:52;14.40;1.00
10129;DHT22;5104;50.720;7.044;2023-05-29T06:01:19;14.40;1.00
10129;DHT22;5104;50.720;7.044;2023-05-29T06:03:47;14.40;1.00
10129;DHT22;5104;50.720;7.044;2023-05-29T06:06:14;14.50;99.90
10129;DHT22;5104;50.720;7.044;2023-05-29T06:08:42;14.60;99.90
10129;DHT22;5104;50.720;7.044;2023-05-29T06:11:10;14.60;99.90
10129;DHT22;5104;50.720;7.044;2023-05-29T06:13:37;14.50;99.90
10129;DHT22;5104;50.720;7.044;2023-05-29T06:16:04;14.50;99.90
10129;DHT22;5104;50.720;7.044;2023-05-29T06:18:31;14.60;99.90
10129;DHT22;5104;50.720;7.044;2023-05-29T06:20:59;14.50;99.90
10129;DHT22;5104;50.720;7.044;2023-05-29T06:23:26;14.60;99.90
10129;DHT22;5104;50.720;7.044;2023-05-29T06:25:53;14.70;99.90
10129;DHT22;5104;50.720;7.044;2023-05-29T06:28:20;14.60;99.90
10129;DHT22;5104;50.720;7.044;2023-05-29T06:30:47;14.70;99.90
10129;DHT22;5104;50.720;7.044;2023-05-29T06:33:14;14.70;99.90
10129;DHT22;5104;50.720;7.044;2023-05-29T06:35:41;14.80;99.90
10129;DHT22;5104;50.720;7.044;2023-05-29T06:38:09;14.80;99.90
10129;DHT22;5104;50.720;7.044;2023-05-29T06:40:36;15.00;99.90
10129;DHT22;5104;50.720;7.044;2023-05-29T06:43:03;15.10;99.90
10129;DHT22;5104;50.720;7.044;2023-05-29T06:45:30;15.00;63.20
10129;DHT22;5104;50.720;7.044;2023-05-29T06:47:56;14.90;72.40
10129;DHT22;5104;50.720;7.044;2023-05-29T06:50:23;15.00;58.10
10129;DHT22;5104;50.720;7.044;2023-05-29T06:52:50;15.00;1.00
10129;DHT22;5104;50.720;7.044;2023-05-29T06:55:19;15.10;77.30
10129;DHT22;5104;50.720;7.044;2023-05-29T06:57:46;15.20;32.80
10129;DHT22;5104;50.720;7.044;2023-05-29T07:00:14;15.20;1.00
10129;DHT22;5104;50.720;7.044;2023-05-29T07:02:41;15.40;1.00
10129;DHT22;5104;50.720;7.044;2023-05-29T07:05:08;15.30;1.00
10129;DHT22;5104;50.720;7.044;2023-05-29T07:07:35;15.20;1.00
10129;DHT22;5104;50.720;7.044;2023-05-29T07:10:02;15.30;1.00
10129;DHT22;5104;50.720;7.044;2023-05-29T07:12:31;15.40;1.00
10129;DHT22;5104;50.720;7.044;2023-05-29T07:14:57;15.40;1.00
10129;DHT22;5104;50.720;7.044;2023-05-29T07:17:24;15.40;1.00
10129;DHT22;5104;50.720;7.044;2023-05-29T07:19:51;15.40;1.00
10129;DHT22;5104;50.720;7.044;2023-05-29T07:22:19;15.40;1.00
10129;DHT22;5104;50.720;7.044;2023-05-29T07:24:46;15.60;1.00
10129;DHT22;5104;50.720;7.044;2023-05-29T07:27:13;15.60;1.00
10129;DHT22;5104;50.720;7.044;2023-05-29T07:29:41;15.60;1.00
10129;DHT22;5104;50.720;7.044;2023-05-29T07:32:08;15.80;1.00
10129;DHT22;5104;50.720;7.044;2023-05-29T07:34:36;15.90;1.00
10129;DHT22;5104;50.720;7.044;2023-05-29T07:37:04;15.90;1.00
10129;DHT22;5104;50.720;7.044;2023-05-29T07:39:32;16.00;1.00
10129;DHT22;5104;50.720;7.044;2023-05-29T07:42:00;16.10;1.00
10129;DHT22;5104;50.720;7.044;2023-05-29T07:44:27;16.10;1.00
10129;DHT22;5104;50.720;7.044;2023-05-29T07:46:56;16.10;1.00
10129;DHT22;5104;50.720;7.044;2023-05-29T07:49:23;16.10;1.00
10129;DHT22;5104;50.720;7.044;2023-05-29T07:51:50;16.10;1.00
10129;DHT22;5104;50.720;7.044;2023-05-29T07:54:17;16.10;1.00
10129;DHT22;5104;50.720;7.044;2023-05-29T07:56:46;16.30;1.00
10129;DHT22;5104;50.720;7.044;2023-05-29T07:59:13;16.40;1.00
10129;DHT22;5104;50.720;7.044;2023-05-29T08:01:40;16.60;1.00
10129;DHT22;5104;50.720;7.044;2023-05-29T08:04:09;16.60;1.00
10129;DHT22;5104;50.720;7.044;2023-05-29T08:06:36;16.80;1.00
10129;DHT22;5104;50.720;7.044;2023-05-29T08:09:03;16.80;99.90
10129;DHT22;5104;50.720;7.044;2023-05-29T08:11:30;16.90;99.90
10129;DHT22;5104;50.720;7.044;2023-05-29T08:13:58;16.90;99.90
10129;DHT22;5104;50.720;7.044;2023-05-29T08:16:25;17.00;99.90
10129;DHT22;5104;50.720;7.044;2023-05-29T08:18:52;17.00;99.90
10129;DHT22;5104;50.720;7.044;2023-05-29T08:21:21;17.10;99.90
10129;DHT22;5104;50.720;7.044;2023-05-29T08:23:48;17.10;99.90
10129;DHT22;5104;50.720;7.044;2023-05-29T08:26:15;17.10;99.90
10129;DHT22;5104;50.720;7.044;2023-05-29T08:28:42;17.10;99.90
10129;DHT22;5104;50.720;7.044;2023-05-29T08:31:09;17.10;99.90
10129;DHT22;5104;50.720;7.044;2023-05-29T08:33:36;17.00;99.90
10129;DHT22;5104;50.720;7.044;2023-05-29T08:36:04;17.00;99.90
10129;DHT22;5104;50.720;7.044;2023-05-29T08:38:32;17.20;99.90
10129;DHT22;5104;50.720;7.044;2023-05-29T08:40:59;17.40;99.90
10129;DHT22;5104;50.720;7.044;2023-05-29T08:43:30;17.60;99.90
10129;DHT22;5104;50.720;7.044;2023-05-29T08:46:00;17.60;99.90
10129;DHT22;5104;50.720;7.044;2023-05-29T08:48:28;17.70;99.90
10129;DHT22;5104;50.720;7.044;2023-05-29T08:50:57;17.80;99.90
10129;DHT22;5104;50.720;7.044;2023-05-29T08:53:25;17.70;99.90
10129;DHT22;5104;50.720;7.044;2023-05-29T08:55:53;17.80;99.90
10129;DHT22;5104;50.720;7.044;2023-05-29T08:58:21;17.80;99.90
10129;DHT22;5104;50.720;7.044;2023-05-29T09:00:49;18.00;99.90
10129;DHT22;5104;50.720;7.044;2023-05-29T09:03:16;18.00;93.10
10129;DHT22;5104;50.720;7.044;2023-05-29T09:05:45;18.10;51.20
10129;DHT22;5104;50.720;7.044;2023-05-29T09:08:12;18.20;52.40
10129;DHT22;5104;50.720;7.044;2023-05-29T09:10:41;18.30;41.50
10129;DHT22;5104;50.720;7.044;2023-05-29T09:13:10;18.40;8.10
10129;DHT22;5104;50.720;7.044;2023-05-29T09:15:39;18.50;5.80
10129;DHT22;5104;50.720;7.044;2023-05-29T09:18:08;18.60;1.00
10129;DHT22;5104;50.720;7.044;2023-05-29T09:20:36;18.70;1.00
10129;DHT22;5104;50.720;7.044;2023-05-29T09:23:05;18.70;1.00
10129;DHT22;5104;50.720;7.044;2023-05-29T09:25:33;18.90;1.00
10129;DHT22;5104;50.720;7.044;2023-05-29T09:28:02;18.90;1.00
10129;DHT22;5104;50.720;7.044;2023-05-29T09:30:36;18.40;1.00
10129;DHT22;5104;50.720;7.044;2023-05-29T09:33:04;18.60;1.00
10129;DHT22;5104;50.720;7.044;2023-05-29T09:35:33;18.90;1.00
10129;DHT22;5104;50.720;7.044;2023-05-29T09:38:01;19.20;1.00
10129;DHT22;5104;50.720;7.044;2023-05-29T09:40:30;19.30;1.00
10129;DHT22;5104;50.720;7.044;2023-05-29T09:43:05;19.20;1.00
10129;DHT22;5104;50.720;7.044;2023-05-29T09:45:37;19.40;1.00
10129;DHT22;5104;50.720;7.044;2023-05-29T09:48:06;19.60;1.00
10129;DHT22;5104;50.720;7.044;2023-05-29T09:50:34;19.50;1.00
10129;DHT22;5104;50.720;7.044;2023-05-29T09:53:01;19.60;1.00
10129;DHT22;5104;50.720;7.044;2023-05-29T09:55:30;19.70;1.00
10129;DHT22;5104;50.720;7.044;2023-05-29T09:57:59;19.80;1.00
10129;DHT22;5104;50.720;7.044;2023-05-29T10:00:28;20.00;1.00
10129;DHT22;5104;50.720;7.044;2023-05-29T10:02:58;20.20;1.00
10129;DHT22;5104;50.720;7.044;2023-05-29T10:05:24;20.20;1.00
10129;DHT22;5104;50.720;7.044;2023-05-29T10:07:54;20.20;1.00
10129;DHT22;5104;50.720;7.044;2023-05-29T10:10:21;20.30;1.00
10129;DHT22;5104;50.720;7.044;2023-05-29T10:12:53;20.30;1.00
10129;DHT22;5104;50.720;7.044;2023-05-29T10:15:23;20.50;1.00
10129;DHT22;5104;50.720;7.044;2023-05-29T10:17:52;20.70;1.00
10129;DHT22;5104;50.720;7.044;2023-05-29T10:20:23;20.90;1.00
10129;DHT22;5104;50.720;7.044;2023-05-29T10:22:52;20.50;1.00
10129;DHT22;5104;50.720;7.044;2023-05-29T10:25:20;20.40;1.00
10129;DHT22;5104;50.720;7.044;2023-05-29T10:27:48;20.70;1.00
10129;DHT22;5104;50.720;7.044;2023-05-29T10:30:23;20.60;1.00
10129;DHT22;5104;50.720;7.044;2023-05-29T10:33:04;20.60;1.00
10129;DHT22;5104;50.720;7.044;2023-05-29T10:35:42;20.50;1.00
10129;DHT22;5104;50.720;7.044;2023-05-29T10:38:13;20.70;1.00
10129;DHT22;5104;50.720;7.044;2023-05-29T10:40:42;20.50;1.00
10129;DHT22;5104;50.720;7.044;2023-05-29T10:43:30;20.70;1.00
10129;DHT22;5104;50.720;7.044;2023-05-29T10:45:59;20.90;1.00
10129;DHT22;5104;50.720;7.044;2023-05-29T10:48:42;21.10;1.00
10129;DHT22;5104;50.720;7.044;2023-05-29T10:51:24;21.00;1.00
10129;DHT22;5104;50.720;7.044;2023-05-29T10:53:51;20.80;1.00
10129;DHT22;5104;50.720;7.044;2023-05-29T10:56:22;21.10;1.00
10129;DHT22;5104;50.720;7.044;2023-05-29T10:58:57;21.20;1.00
10129;DHT22;5104;50.720;7.044;2023-05-29T11:01:27;21.30;1.00
10129;DHT22;5104;50.720;7.044;2023-05-29T11:04:28;21.40;1.00
10129;DHT22;5104;50.720;7.044;2023-05-29T11:06:59;21.50;1.00
10129;DHT22;5104;50.720;7.044;2023-05-29T11:09:27;21.30;1.00
10129;DHT22;5104;50.720;7.044;2023-05-29T11:12:15;21.30;1.00
10129;DHT22;5104;50.720;7.044;2023-05-29T11:14:55;21.20;1.00
10129;DHT22;5104;50.720;7.044;2023-05-29T11:17:29;21.10;1.00
10129;DHT22;5104;50.720;7.044;2023-05-29T11:19:56;21.10;1.00
10129;DHT22;5104;50.720;7.044;2023-05-29T11:22:30;21.10;1.00
10129;DHT22;5104;50.720;7.044;2023-05-29T11:25:00;21.20;1.00
10129;DHT22;5104;50.720;7.044;2023-05-29T11:27:29;21.40;1.00
10129;DHT22;5104;50.720;7.044;2023-05-29T11:29:56;21.60;1.00
10129;DHT22;5104;50.720;7.044;2023-05-29T11:32:27;21.60;1.00
10129;DHT22;5104;50.720;7.044;2023-05-29T11:34:57;21.60;1.00
10129;DHT22;5104;50.720;7.044;2023-05-29T11:37:26;21.70;1.00
10129;DHT22;5104;50.720;7.044;2023-05-29T11:39:53;21.90;99.90
10129;DHT22;5104;50.720;7.044;2023-05-29T11:42:20;21.90;99.90
10129;DHT22;5104;50.720;7.044;2023-05-29T11:44:47;21.80;99.90
10129;DHT22;5104;50.720;7.044;2023-05-29T11:47:14;22.00;99.90
10129;DHT22;5104;50.720;7.044;2023-05-29T11:49:41;22.10;99.90
10129;DHT22;5104;50.720;7.044;2023-05-29T11:52:08;22.20;99.90
10129;DHT22;5104;50.720;7.044;2023-05-29T11:54:37;22.10;99.90
10129;DHT22;5104;50.720;7.044;2023-05-29T11:57:04;22.20;99.90
10129;DHT22;5104;50.720;7.044;2023-05-29T11:59:31;22.40;99.90
10129;DHT22;5104;50.720;7.044;2023-05-29T12:01:59;22.40;99.90
10129;DHT22;5104;50.720;7.044;2023-05-29T12:04:26;22.40;99.90
10129;DHT22;5104;50.720;7.044;2023-05-29T12:06:53;22.30;99.90
10129;DHT22;5104;50.720;7.044;2023-05-29T12:09:24;22.20;99.90
10129;DHT22;5104;50.720;7.044;2023-05-29T12:11:54;22.10;99.90
10129;DHT22;5104;50.720;7.044;2023-05-29T12:14:20;22.10;99.90
10129;DHT22;5104;50.720;7.044;2023-05-29T12:16:47;22.20;99.90
10129;DHT22;5104;50.720;7.044;2023-05-29T12:19:14;22.30;99.90
10129;DHT22;5104;50.720;7.044;2023-05-29T12:21:42;22.50;99.90
10129;DHT22;5104;50.720;7.044;2023-05-29T12:24:09;22.60;99.90
10129;DHT22;5104;50.720;7.044;2023-05-29T12:26:36;22.60;99.90
10129;DHT22;5104;50.720;7.044;2023-05-29T12:29:05;22.60;99.90
10129;DHT22;5104;50.720;7.044;2023-05-29T12:31:32;22.50;99.90
10129;DHT22;5104;50.720;7.044;2023-05-29T12:34:01;22.80;99.90
10129;DHT22;5104;50.720;7.044;2023-05-29T12:36:28;22.90;99.90
10129;DHT22;5104;50.720;7.044;2023-05-29T12:38:56;22.90;99.90
10129;DHT22;5104;50.720;7.044;2023-05-29T12:41:27;23.00;99.90
10129;DHT22;5104;50.720;7.044;2023-05-29T12:43:55;23.10;99.90
10129;DHT22;5104;50.720;7.044;2023-05-29T12:46:24;23.10;99.90
10129;DHT22;5104;50.720;7.044;2023-05-29T12:48:53;23.10;99.90
10129;DHT22;5104;50.720;7.044;2023-05-29T12:51:24;23.20;99.90
10129;DHT22;5104;50.720;7.044;2023-05-29T12:53:51;23.30;99.90
10129;DHT22;5104;50.720;7.044;2023-05-29T12:56:21;23.40;99.90
10129;DHT22;5104;50.720;7.044;2023-05-29T12:58:49;23.60;99.90
10129;DHT22;5104;50.720;7.044;2023-05-29T13:01:16;23.60;99.90
10129;DHT22;5104;50.720;7.044;2023-05-29T13:03:44;23.70;99.90
10129;DHT22;5104;50.720;7.044;2023-05-29T13:06:11;23.50;99.90
10129;DHT22;5104;50.720;7.044;2023-05-29T13:08:38;23.30;99.90
10129;DHT22;5104;50.720;7.044;2023-05-29T13:11:05;23.50;99.90
10129;DHT22;5104;50.720;7.044;2023-05-29T13:13:32;23.50;99.90
10129;DHT22;5104;50.720;7.044;2023-05-29T13:15:59;23.80;99.90
10129;DHT22;5104;50.720;7.044;2023-05-29T13:18:26;23.70;99.90
10129;DHT22;5104;50.720;7.044;2023-05-29T13:20:54;23.70;99.90
10129;DHT22;5104;50.720;7.044;2023-05-29T13:23:21;23.70;99.90
10129;DHT22;5104;50.720;7.044;2023-05-29T13:25:48;23.60;99.90
10129;DHT22;5104;50.720;7.044;2023-05-29T13:28:15;23.60;99.90
10129;DHT22;5104;50.720;7.044;2023-05-29T13:30:44;23.60;99.90
10129;DHT22;5104;50.720;7.044;2023-05-29T13:33:11;23.70;99.90
10129;DHT22;5104;50.720;7.044;2023-05-29T13:35:37;23.70;99.90
10129;DHT22;5104;50.720;7.044;2023-05-29T13:38:06;23.90;99.90
10129;DHT22;5104;50.720;7.044;2023-05-29T13:40:33;23.60;99.90
10129;DHT22;5104;50.720;7.044;2023-05-29T13:42:59;23.40;99.90
10129;DHT22;5104;50.720;7.044;2023-05-29T13:45:26;23.10;99.90
10129;DHT22;5104;50.720;7.044;2023-05-29T13:47:54;23.40;99.90
10129;DHT22;5104;50.720;7.044;2023-05-29T13:50:21;23.70;99.90
10129;DHT22;5104;50.720;7.044;2023-05-29T13:52:49;23.80;99.90
10129;DHT22;5104;50.720;7.044;2023-05-29T13:55:17;24.10;99.90
10129;DHT22;5104;50.720;7.044;2023-05-29T13:57:44;24.10;99.90
10129;DHT22;5104;50.720;7.044;2023-05-29T14:00:12;24.10;99.90
10129;DHT22;5104;50.720;7.044;2023-05-29T14:02:39;24.10;99.90
10129;DHT22;5104;50.720;7.044;2023-05-29T14:05:06;24.10;99.90
10129;DHT22;5104;50.720;7.044;2023-05-29T14:07:35;24.30;99.90
10129;DHT22;5104;50.720;7.044;2023-05-29T14:10:02;24.50;99.90
10129;DHT22;5104;50.720;7.044;2023-05-29T14:12:30;24.80;99.90
10129;DHT22;5104;50.720;7.044;2023-05-29T14:14:57;24.60;99.90
10129;DHT22;5104;50.720;7.044;2023-05-29T14:17:24;25.00;99.90
10129;DHT22;5104;50.720;7.044;2023-05-29T14:19:51;25.20;99.90
10129;DHT22;5104;50.720;7.044;2023-05-29T14:22:18;25.80;99.90
10129;DHT22;5104;50.720;7.044;2023-05-29T14:24:45;25.80;99.90
10129;DHT22;5104;50.720;7.044;2023-05-29T14:27:12;25.90;99.90
10129;DHT22;5104;50.720;7.044;2023-05-29T14:29:40;25.80;99.90
10129;DHT22;5104;50.720;7.044;2023-05-29T14:32:08;26.20;99.90
10129;DHT22;5104;50.720;7.044;2023-05-29T14:34:34;26.30;99.90
10129;DHT22;5104;50.720;7.044;2023-05-29T14:37:01;26.80;99.90
10129;DHT22;5104;50.720;7.044;2023-05-29T14:39:28;27.10;99.90
10129;DHT22;5104;50.720;7.044;2023-05-29T14:41:55;27.10;99.90
10129;DHT22;5104;50.720;7.044;2023-05-29T14:44:22;26.90;99.90
10129;DHT22;5104;50.720;7.044;2023-05-29T14:46:50;27.10;99.90
10129;DHT22;5104;50.720;7.044;2023-05-29T14:49:17;26.90;99.90
10129;DHT22;5104;50.720;7.044;2023-05-29T14:51:45;26.40;99.90
10129;DHT22;5104;50.720;7.044;2023-05-29T14:54:12;26.40;99.90
10129;DHT22;5104;50.720;7.044;2023-05-29T14:56:38;26.80;99.90
10129;DHT22;5104;50.720;7.044;2023-05-29T14:59:05;26.80;99.90
10129;DHT22;5104;50.720;7.044;2023-05-29T15:01:32;26.70;99.90
10129;DHT22;5104;50.720;7.044;2023-05-29T15:04:00;26.80;99.90
10129;DHT22;5104;50.720;7.044;2023-05-29T15:06:27;27.10;99.90
10129;DHT22;5104;50.720;7.044;2023-05-29T15:08:55;26.50;99.90
10129;DHT22;5104;50.720;7.044;2023-05-29T15:11:23;26.60;99.90
10129;DHT22;5104;50.720;7.044;2023-05-29T15:13:51;27.20;99.90
10129;DHT22;5104;50.720;7.044;2023-05-29T15:16:17;27.50;96.10
10129;DHT22;5104;50.720;7.044;2023-05-29T15:18:45;27.60;94.00
10129;DHT22;5104;50.720;7.044;2023-05-29T15:21:13;27.50;89.10
10129;DHT22;5104;50.720;7.044;2023-05-29T15:23:40;27.40;82.30
10129;DHT22;5104;50.720;7.044;2023-05-29T15:26:09;27.60;84.20
10129;DHT22;5104;50.720;7.044;2023-05-29T15:28:36;27.30;88.10
10129;DHT22;5104;50.720;7.044;2023-05-29T15:31:03;27.10;87.60
10129;DHT22;5104;50.720;7.044;2023-05-29T15:33:30;27.50;83.10
10129;DHT22;5104;50.720;7.044;2023-05-29T15:35:57;27.90;77.20
10129;DHT22;5104;50.720;7.044;2023-05-29T15:38:25;27.90;69.40
10129;DHT22;5104;50.720;7.044;2023-05-29T15:40:52;27.80;67.40
10129;DHT22;5104;50.720;7.044;2023-05-29T15:43:20;27.60;70.10
10129;DHT22;5104;50.720;7.044;2023-05-29T15:45:46;27.40;68.00
10129;DHT22;5104;50.720;7.044;2023-05-29T15:48:14;27.00;73.60
10129;DHT22;5104;50.720;7.044;2023-05-29T15:50:41;27.00;76.60
10129;DHT22;5104;50.720;7.044;2023-05-29T15:53:09;27.10;78.80
10129;DHT22;5104;50.720;7.044;2023-05-29T15:55:37;26.80;77.70
10129;DHT22;5104;50.720;7.044;2023-05-29T15:58:04;27.00;77.50